MSC Regina — 3FGF9 — position and weather

sailwx.info

Track history (hours):
 
Tides and Currents Weather Stations Pressure Air Temp Water Temp Dewpoint Dewpoint Depression Visibility Wind Speed Wind Dir Waves Ship Positions

MSC Regina

Last reported at 2016-Feb-09 02:25 UTC. Time now 2016-Feb-10 08:49 UTC.
Position N 38°21' W 010°46'.

Length 259 m; draft 10.3 m.

Type: Ship (hazmat cat A). MMSI: 357331980.

Date/timePositionNaut miles runAvg speedWind from/ knotsBaromVisibWave heightAir tempDewpointWater temp
2016-Feb-09 02:25N 38°21' W 010°46'1617.4
2016-Feb-09 01:28N 38°16' W 010°26'1616.8
2016-Feb-09 00:31N 38°11' W 010°07'2017.9
2016-Feb-08 23:25N 38°06' W 009°43'1416.1
2016-Feb-08 22:33N 38°02' W 009°26'1817.9
2016-Feb-08 21:33N 37°57' W 009°04'1110.5
2016-Feb-08 20:33N 37°56' W 008°51'0 0.0
2016-Feb-08 19:33N 37°56' W 008°51'0 0.0
2016-Feb-08 18:33N 37°56' W 008°51'0 0.0
2016-Feb-08 17:30N 37°56' W 008°51'0 0.0
2016-Feb-08 16:33N 37°56' W 008°51'0 0.0
2016-Feb-08 15:33N 37°56' W 008°51'0 0.0
2016-Feb-08 14:33N 37°56' W 008°51'0 0.0
2016-Feb-08 13:33N 37°56' W 008°51'0 0.0
2016-Feb-08 12:33N 37°56' W 008°51'0 0.0
2016-Feb-08 11:30N 37°56' W 008°51'0 0.0
2016-Feb-08 10:33N 37°56' W 008°51'0 0.0
2016-Feb-08 09:33N 37°56' W 008°51'0 0.0
2016-Feb-08 08:33N 37°56' W 008°51'0 0.1
2016-Feb-08 07:33N 37°56' W 008°51'4 4.4
2016-Feb-08 06:33N 37°51' W 008°52'7 7.2
2016-Feb-08 05:33N 37°45' W 008°55'1313.0
2016-Feb-08 04:33N 37°33' W 009°02'1514.6
2016-Feb-08 03:33N 37°20' W 009°10'1715.3
2016-Feb-08 02:28N 37°05' W 009°18'1212.2
2016-Feb-08 01:31N 36°53' W 009°17'1313.3
2016-Feb-08 00:31N 36°44' W 009°05'1212.7
2016-Feb-07 23:33N 36°39' W 008°51'1514.8
2016-Feb-07 22:31N 36°35' W 008°33'1414.3
2016-Feb-07 21:31N 36°30' W 008°16'12415.2
2016-Feb-07 13:19N 35°57' W 005°47'1215.6
2016-Feb-07 12:33N 35°58' W 005°32'1514.7
2016-Feb-07 11:33N 36°03' W 005°15'22314.8
2016-Feb-06 20:29N 37°19' W 000°55'1516.4
2016-Feb-06 19:33N 37°29' W 000°40'1616.0
2016-Feb-06 18:33N 37°42' W 000°28'1717.0
2016-Feb-06 17:33N 37°56' W 000°16'9518.8
2016-Feb-06 12:30N 39°13' E 000°55'4219.0
2016-Feb-06 10:16N 39°41' E 001°37'1318.6
2016-Feb-06 09:33N 39°49' E 001°51'1918.6
2016-Feb-06 08:33N 39°60' E 002°10'1919.6
2016-Feb-06 07:33N 40°12' E 002°30'2019.5
2016-Feb-06 06:33N 40°24' E 002°51'1919.2
2016-Feb-06 05:33N 40°36' E 003°11'1919.0
2016-Feb-06 04:33N 40°47' E 003°30'7919.4
2016-Feb-06 00:28N 41°35' E 004°54'19119.2
2016-Feb-05 14:30N 43°45' E 008°05'2220.3
2016-Feb-05 13:24N 44°03' E 008°23'1720.1
2016-Feb-05 12:33N 44°17' E 008°36'1111.0
2016-Feb-05 11:33N 44°25' E 008°47'0 0.0
2016-Feb-05 10:33N 44°25' E 008°47'0 0.0
2016-Feb-05 09:33N 44°25' E 008°47'0 0.0
2016-Feb-05 08:33N 44°25' E 008°47'0 0.0
2016-Feb-05 07:33N 44°25' E 008°47'0 0.0
2016-Feb-05 06:33N 44°25' E 008°47'0 0.0
2016-Feb-05 05:33N 44°25' E 008°47'0 0.0
2016-Feb-05 04:33N 44°25' E 008°47'0 0.0
2016-Feb-05 03:33N 44°25' E 008°47'0 0.0
2016-Feb-05 02:33N 44°25' E 008°47'0 0.0
2016-Feb-05 01:21N 44°25' E 008°47'0 0.0
2016-Feb-05 00:33N 44°25' E 008°47'0 0.0
2016-Feb-04 23:27N 44°25' E 008°47'0 0.0
2016-Feb-04 22:33N 44°25' E 008°47'0 0.0
2016-Feb-04 21:30N 44°25' E 008°47'0 0.0
2016-Feb-04 20:33N 44°25' E 008°47'0 0.0
2016-Feb-04 19:33N 44°25' E 008°47'0 0.0
2016-Feb-04 18:33N 44°25' E 008°47'0 0.0
2016-Feb-04 17:33N 44°25' E 008°47'1 1.4
2016-Feb-04 16:33N 44°24' E 008°45'2 2.3
2016-Feb-04 15:34N 44°22' E 008°44'1 1.0
2016-Feb-04 14:33N 44°22' E 008°43'7 6.5
2016-Feb-04 13:33N 44°17' E 008°49'1312.7
2016-Feb-04 12:33N 44°07' E 009°00'1212.4
2016-Feb-04 11:33N 43°58' E 009°12'1312.5
2016-Feb-04 10:33N 43°49' E 009°24'1312.6
2016-Feb-04 09:34N 43°40' E 009°36'1312.6
2016-Feb-04 08:34N 43°32' E 009°50'1515.5
2016-Feb-04 07:33N 43°30' E 010°11'7 7.0
2016-Feb-04 06:32N 43°35' E 010°18'0 0.0
2016-Feb-04 05:32N 43°35' E 010°18'0 0.0
2016-Feb-04 04:32N 43°35' E 010°18'0 0.0
2016-Feb-04 03:32N 43°35' E 010°18'0 0.0
2016-Feb-04 02:32N 43°35' E 010°18'0 0.0
2016-Feb-04 01:32N 43°35' E 010°18'0 0.0
2016-Feb-04 00:32N 43°35' E 010°18'0 0.0
2016-Feb-03 23:32N 43°35' E 010°18'0 0.0
2016-Feb-03 22:32N 43°35' E 010°18'0 0.0
2016-Feb-03 21:32N 43°35' E 010°18'0 0.0
2016-Feb-03 20:32N 43°35' E 010°18'0 0.0
2016-Feb-03 19:32N 43°35' E 010°18'0 0.0
2016-Feb-03 18:32N 43°35' E 010°18'0 0.0
2016-Feb-03 17:32N 43°35' E 010°18'0 0.0
2016-Feb-03 16:29N 43°35' E 010°18'0 0.0
2016-Feb-03 15:32N 43°35' E 010°18'0 0.0
2016-Feb-03 14:32N 43°35' E 010°18'0 0.0
2016-Feb-03 13:32N 43°35' E 010°18'0 0.0
2016-Feb-03 12:32N 43°35' E 010°18'0 0.0
2016-Feb-03 11:32N 43°35' E 010°18'0 0.0
2016-Feb-03 10:32N 43°35' E 010°18'0 0.0
2016-Feb-03 09:32N 43°35' E 010°18'0 0.0
2016-Feb-03 08:32N 43°35' E 010°18'0 0.0
2016-Feb-03 07:32N 43°35' E 010°18'0 0.0
2016-Feb-03 06:32N 43°35' E 010°18'0 0.0
2016-Feb-03 05:32N 43°35' E 010°18'3 3.5
2016-Feb-03 04:34N 43°32' E 010°16'4 4.1
2016-Feb-03 03:34N 43°29' E 010°12'8 8.1
2016-Feb-03 02:34N 43°23' E 010°04'1312.7
2016-Feb-03 01:34N 43°14' E 009°52'1312.8
2016-Feb-03 00:34N 43°04' E 009°40'39112.5
2016-Feb-01 17:20N 38°30' E 015°47'6 7.5
2016-Feb-01 16:32N 38°28' E 015°54'18 0.6
2016-Jan-31 08:05N 38°23' E 015°32'712.0
2016-Jan-31 07:32N 38°22' E 015°24'1111.7
2016-Jan-31 06:33N 38°18' E 015°10'1311.7
2016-Jan-31 05:29N 38°16' E 014°54'1211.6
2016-Jan-31 04:29N 38°17' E 014°39'3711.9
2016-Jan-31 01:23N 38°17' E 013°52'1011.6
2016-Jan-31 00:33N 38°18' E 013°40'1211.5
2016-Jan-30 23:33N 38°18' E 013°25'1211.8
2016-Jan-30 22:33N 38°18' E 013°10'1111.4
2016-Jan-30 21:33N 38°17' E 012°56'1210.9
2016-Jan-30 20:29N 38°15' E 012°41'1111.7
2016-Jan-30 19:33N 38°13' E 012°27'1211.4
2016-Jan-30 18:33N 38°12' E 012°13'  
Track history (hours):
 
Tides and Currents Weather Stations Pressure Air Temp Water Temp Dewpoint Dewpoint Depression Visibility Wind Speed Wind Dir Waves Ship Positions

MSC Regina

Last reported at 2016-Feb-09 02:25 UTC. Time now 2016-Feb-10 08:49 UTC.
Position N 38°21' W 010°46'.

Length 259 m; draft 10.3 m.

Type: Ship (hazmat cat A). MMSI: 357331980.

Date/timePositionNaut miles runAvg speedWind from/ knotsBaromVisibWave heightAir tempDewpointWater temp
2016-Feb-09 02:25N 38°21' W 010°46'1617.4
2016-Feb-09 01:28N 38°16' W 010°26'1616.8
2016-Feb-09 00:31N 38°11' W 010°07'2017.9
2016-Feb-08 23:25N 38°06' W 009°43'1416.1
2016-Feb-08 22:33N 38°02' W 009°26'1817.9
2016-Feb-08 21:33N 37°57' W 009°04'1110.5
2016-Feb-08 20:33N 37°56' W 008°51'0 0.0
2016-Feb-08 19:33N 37°56' W 008°51'0 0.0
2016-Feb-08 18:33N 37°56' W 008°51'0 0.0
2016-Feb-08 17:30N 37°56' W 008°51'0 0.0
2016-Feb-08 16:33N 37°56' W 008°51'0 0.0
2016-Feb-08 15:33N 37°56' W 008°51'0 0.0
2016-Feb-08 14:33N 37°56' W 008°51'0 0.0
2016-Feb-08 13:33N 37°56' W 008°51'0 0.0
2016-Feb-08 12:33N 37°56' W 008°51'0 0.0
2016-Feb-08 11:30N 37°56' W 008°51'0 0.0
2016-Feb-08 10:33N 37°56' W 008°51'0 0.0
2016-Feb-08 09:33N 37°56' W 008°51'0 0.0
2016-Feb-08 08:33N 37°56' W 008°51'0 0.1
2016-Feb-08 07:33N 37°56' W 008°51'4 4.4
2016-Feb-08 06:33N 37°51' W 008°52'7 7.2
2016-Feb-08 05:33N 37°45' W 008°55'1313.0
2016-Feb-08 04:33N 37°33' W 009°02'1514.6
2016-Feb-08 03:33N 37°20' W 009°10'1715.3
2016-Feb-08 02:28N 37°05' W 009°18'1212.2
2016-Feb-08 01:31N 36°53' W 009°17'1313.3
2016-Feb-08 00:31N 36°44' W 009°05'1212.7
2016-Feb-07 23:33N 36°39' W 008°51'1514.8
2016-Feb-07 22:31N 36°35' W 008°33'1414.3
2016-Feb-07 21:31N 36°30' W 008°16'12415.2
2016-Feb-07 13:19N 35°57' W 005°47'1215.6
2016-Feb-07 12:33N 35°58' W 005°32'1514.7
2016-Feb-07 11:33N 36°03' W 005°15'22314.8
2016-Feb-06 20:29N 37°19' W 000°55'1516.4
2016-Feb-06 19:33N 37°29' W 000°40'1616.0
2016-Feb-06 18:33N 37°42' W 000°28'1717.0
2016-Feb-06 17:33N 37°56' W 000°16'9518.8
2016-Feb-06 12:30N 39°13' E 000°55'4219.0
2016-Feb-06 10:16N 39°41' E 001°37'1318.6
2016-Feb-06 09:33N 39°49' E 001°51'1918.6
2016-Feb-06 08:33N 39°60' E 002°10'1919.6
2016-Feb-06 07:33N 40°12' E 002°30'2019.5
2016-Feb-06 06:33N 40°24' E 002°51'1919.2
2016-Feb-06 05:33N 40°36' E 003°11'1919.0
2016-Feb-06 04:33N 40°47' E 003°30'7919.4
2016-Feb-06 00:28N 41°35' E 004°54'19119.2
2016-Feb-05 14:30N 43°45' E 008°05'2220.3
2016-Feb-05 13:24N 44°03' E 008°23'1720.1
2016-Feb-05 12:33N 44°17' E 008°36'1111.0
2016-Feb-05 11:33N 44°25' E 008°47'0 0.0
2016-Feb-05 10:33N 44°25' E 008°47'0 0.0
2016-Feb-05 09:33N 44°25' E 008°47'0 0.0
2016-Feb-05 08:33N 44°25' E 008°47'0 0.0
2016-Feb-05 07:33N 44°25' E 008°47'0 0.0
2016-Feb-05 06:33N 44°25' E 008°47'0 0.0
2016-Feb-05 05:33N 44°25' E 008°47'0 0.0
2016-Feb-05 04:33N 44°25' E 008°47'0 0.0
2016-Feb-05 03:33N 44°25' E 008°47'0 0.0
2016-Feb-05 02:33N 44°25' E 008°47'0 0.0
2016-Feb-05 01:21N 44°25' E 008°47'0 0.0
2016-Feb-05 00:33N 44°25' E 008°47'0 0.0
2016-Feb-04 23:27N 44°25' E 008°47'0 0.0
2016-Feb-04 22:33N 44°25' E 008°47'0 0.0
2016-Feb-04 21:30N 44°25' E 008°47'0 0.0
2016-Feb-04 20:33N 44°25' E 008°47'0 0.0
2016-Feb-04 19:33N 44°25' E 008°47'0 0.0
2016-Feb-04 18:33N 44°25' E 008°47'0 0.0
2016-Feb-04 17:33N 44°25' E 008°47'1 1.4
2016-Feb-04 16:33N 44°24' E 008°45'2 2.3
2016-Feb-04 15:34N 44°22' E 008°44'1 1.0
2016-Feb-04 14:33N 44°22' E 008°43'7 6.5
2016-Feb-04 13:33N 44°17' E 008°49'1312.7
2016-Feb-04 12:33N 44°07' E 009°00'1212.4
2016-Feb-04 11:33N 43°58' E 009°12'1312.5
2016-Feb-04 10:33N 43°49' E 009°24'1312.6
2016-Feb-04 09:34N 43°40' E 009°36'1312.6
2016-Feb-04 08:34N 43°32' E 009°50'1515.5
2016-Feb-04 07:33N 43°30' E 010°11'7 7.0
2016-Feb-04 06:32N 43°35' E 010°18'0 0.0
2016-Feb-04 05:32N 43°35' E 010°18'0 0.0
2016-Feb-04 04:32N 43°35' E 010°18'0 0.0
2016-Feb-04 03:32N 43°35' E 010°18'0 0.0
2016-Feb-04 02:32N 43°35' E 010°18'0 0.0
2016-Feb-04 01:32N 43°35' E 010°18'0 0.0
2016-Feb-04 00:32N 43°35' E 010°18'0 0.0
2016-Feb-03 23:32N 43°35' E 010°18'0 0.0
2016-Feb-03 22:32N 43°35' E 010°18'0 0.0
2016-Feb-03 21:32N 43°35' E 010°18'0 0.0
2016-Feb-03 20:32N 43°35' E 010°18'0 0.0
2016-Feb-03 19:32N 43°35' E 010°18'0 0.0
2016-Feb-03 18:32N 43°35' E 010°18'0 0.0
2016-Feb-03 17:32N 43°35' E 010°18'0 0.0
2016-Feb-03 16:29N 43°35' E 010°18'0 0.0
2016-Feb-03 15:32N 43°35' E 010°18'0 0.0
2016-Feb-03 14:32N 43°35' E 010°18'0 0.0
2016-Feb-03 13:32N 43°35' E 010°18'0 0.0
2016-Feb-03 12:32N 43°35' E 010°18'0 0.0
2016-Feb-03 11:32N 43°35' E 010°18'0 0.0
2016-Feb-03 10:32N 43°35' E 010°18'0 0.0
2016-Feb-03 09:32N 43°35' E 010°18'0 0.0
2016-Feb-03 08:32N 43°35' E 010°18'0 0.0
2016-Feb-03 07:32N 43°35' E 010°18'0 0.0
2016-Feb-03 06:32N 43°35' E 010°18'0 0.0
2016-Feb-03 05:32N 43°35' E 010°18'3 3.5
2016-Feb-03 04:34N 43°32' E 010°16'4 4.1
2016-Feb-03 03:34N 43°29' E 010°12'8 8.1
2016-Feb-03 02:34N 43°23' E 010°04'1312.7
2016-Feb-03 01:34N 43°14' E 009°52'1312.8
2016-Feb-03 00:34N 43°04' E 009°40'39112.5
2016-Feb-01 17:20N 38°30' E 015°47'6 7.5
2016-Feb-01 16:32N 38°28' E 015°54'18 0.6
2016-Jan-31 08:05N 38°23' E 015°32'712.0
2016-Jan-31 07:32N 38°22' E 015°24'1111.7
2016-Jan-31 06:33N 38°18' E 015°10'1311.7
2016-Jan-31 05:29N 38°16' E 014°54'1211.6
2016-Jan-31 04:29N 38°17' E 014°39'3711.9
2016-Jan-31 01:23N 38°17' E 013°52'1011.6
2016-Jan-31 00:33N 38°18' E 013°40'1211.5
2016-Jan-30 23:33N 38°18' E 013°25'1211.8
2016-Jan-30 22:33N 38°18' E 013°10'1111.4
2016-Jan-30 21:33N 38°17' E 012°56'1210.9
2016-Jan-30 20:29N 38°15' E 012°41'1111.7
2016-Jan-30 19:33N 38°13' E 012°27'1211.4
2016-Jan-30 18:33N 38°12' E 012°13'  

Dump ship's entire track history